Airport View

Enter AWOS ICAO identifier for current METAR.

KFNL for example

K42J 271915Z AUTO 24003KT 10SM CLR 33/10 A3004 RMK AO1 TSNO

27 May 2017 19:21

Frequency: 124.275

Phone: 352-473-8273

Other Area AWOS: KGNV - K28J - KVQQ - KNIP

TAF KGNV 271720Z 2718/2818 23005KT P6SM SKC FM280700 24003KT 3SM BR BKN005 FM280900 25003KT 2SM BR OVC004 FM281200 27008KT P6SM SCT035